Time;durP1;ratioP1;P1;durP2;ratioP2;P2;SDS_P1;SDS_P2;PMS_P1;PMS_P2;Temp;Humidity;BMP_temperature;BMP_pressure;BME280_temperature;BME280_humidity;BME280_pressure;Samples;Min_cycle;Max_cycle;Signal;HPM_P1;HPM_P2
2023/10/08 00:01:13;;;;;;;7.13;2.42;;;18.30;91.90;;;;;;4893954;29;20076;-82
2023/10/08 00:03:48;;;;;;;7.97;2.50;;;18.30;92.00;;;;;;4878405;29;20051;-82
2023/10/08 00:06:20;;;;;;;6.57;2.17;;;18.20;92.10;;;;;;4878331;29;20051;-82
2023/10/08 00:08:47;;;;;;;7.90;2.25;;;18.30;92.10;;;;;;4878260;29;20057;-82
2023/10/08 00:11:17;;;;;;;9.13;2.38;;;18.30;92.10;;;;;;4878392;29;20484;-82
2023/10/08 00:13:44;;;;;;;11.43;2.72;;;18.30;92.20;;;;;;4878152;29;20059;-82
2023/10/08 00:16:16;;;;;;;10.35;2.58;;;18.30;92.30;;;;;;4878177;29;20109;-82
2023/10/08 00:18:50;;;;;;;;;;;18.30;92.30;;;;;;4878568;29;20041;-82
2023/10/08 00:21:26;;;;;;;8.98;2.08;;;18.20;92.50;;;;;;4878005;29;19955;-82
2023/10/08 00:23:57;;;;;;;9.05;1.98;;;18.20;92.50;;;;;;4877887;29;20571;-82
2023/10/08 00:26:27;;;;;;;9.50;2.42;;;18.20;92.50;;;;;;4878109;29;20101;-82
2023/10/08 00:28:59;;;;;;;7.50;2.15;;;18.20;92.50;;;;;;4877740;29;20056;-82
2023/10/08 00:31:31;;;;;;;4.90;1.55;;;18.20;92.50;;;;;;4878151;29;20492;-82
2023/10/08 00:33:58;;;;;;;8.55;2.28;;;18.20;92.50;;;;;;4877868;29;20057;-82
2023/10/08 00:36:25;;;;;;;7.38;2.13;;;18.20;92.60;;;;;;4862421;29;20033;-82
2023/10/08 00:38:59;;;;;;;10.13;2.08;;;18.20;92.70;;;;;;4862723;29;20045;-82
2023/10/08 00:41:32;;;;;;;8.68;1.88;;;18.20;92.70;;;;;;4878007;29;20053;-82
2023/10/08 00:44:00;;;;;;;6.10;1.35;;;18.20;92.70;;;;;;4892912;29;20425;-81
2023/10/08 00:46:32;;;;;;;9.05;2.50;;;18.10;92.80;;;;;;4877784;29;20148;-82
2023/10/08 00:49:24;;;;;;;9.68;2.75;;;18.10;92.80;;;;;;4862564;29;20049;-82
2023/10/08 00:57:28;;;;;;;7.30;2.17;;;18.10;93.00;;;;;;4880237;29;20041;-81
2023/10/08 00:59:58;;;;;;;5.60;1.80;;;18.10;92.90;;;;;;4877993;29;20068;-81
2023/10/08 01:02:28;;;;;;;7.07;1.63;;;18.10;93.00;;;;;;4862326;29;20045;-82
2023/10/08 01:04:56;;;;;;;7.97;1.88;;;18.10;93.00;;;;;;4877636;29;20080;-81
2023/10/08 01:07:25;;;;;;;6.13;1.80;;;18.10;93.00;;;;;;4862180;29;20414;-82
2023/10/08 01:09:58;;;;;;;4.65;1.33;;;18.10;93.00;;;;;;4877889;29;20483;-81
2023/10/08 01:15:16;;;;;;;5.85;1.70;;;18.10;93.10;;;;;;4877484;29;20125;-81
2023/10/08 01:17:58;;;;;;;6.88;1.90;;;18.10;93.10;;;;;;4862305;29;20073;-82
2023/10/08 01:20:34;;;;;;;;;;;18.10;93.10;;;;;;4849262;29;20056;-81
2023/10/08 01:23:10;;;;;;;3.13;1.02;;;18.00;93.10;;;;;;4858961;29;19924;-81
2023/10/08 01:25:38;;;;;;;6.35;1.27;;;18.00;93.20;;;;;;4872755;29;20500;-82
2023/10/08 01:28:17;;;;;;;7.25;1.42;;;18.00;93.20;;;;;;4853383;29;20196;-82
2023/10/08 01:30:46;;;;;;;4.38;0.95;;;17.90;93.30;;;;;;4877618;29;20049;-82
2023/10/08 01:33:15;;;;;;;8.13;1.58;;;17.90;93.30;;;;;;4877343;29;20057;-82
2023/10/08 01:35:43;;;;;;;7.20;1.58;;;17.90;93.30;;;;;;4880614;29;20045;-82
2023/10/08 01:38:13;;;;;;;7.95;1.23;;;17.90;93.40;;;;;;4862673;29;20496;-82
2023/10/08 01:40:42;;;;;;;7.05;1.67;;;17.90;93.40;;;;;;4866086;29;20041;-81
2023/10/08 01:43:11;;;;;;;11.07;1.20;;;17.90;93.40;;;;;;4885597;29;20053;-82
2023/10/08 01:45:43;;;;;;;5.13;1.13;;;17.90;93.40;;;;;;4872234;29;20049;-82
2023/10/08 01:48:10;;;;;;;6.65;1.10;;;17.80;93.50;;;;;;4887859;29;20095;-82
2023/10/08 01:50:38;;;;;;;4.10;0.98;;;17.80;93.50;;;;;;4887775;29;20056;-81
2023/10/08 01:53:10;;;;;;;4.63;1.35;;;17.80;93.60;;;;;;4866687;29;20057;-81
2023/10/08 01:55:51;;;;;;;4.75;1.30;;;17.80;93.60;;;;;;4881147;29;20048;-81
2023/10/08 01:58:19;;;;;;;5.18;1.20;;;17.80;93.60;;;;;;4865288;29;20075;-81
2023/10/08 02:00:52;;;;;;;8.02;1.58;;;17.80;93.60;;;;;;4865656;29;20068;-81
2023/10/08 02:03:19;;;;;;;8.13;1.58;;;17.80;93.70;;;;;;4865565;29;20041;-81
2023/10/08 02:05:46;;;;;;;7.32;1.50;;;17.80;93.70;;;;;;4880673;29;20572;-81
2023/10/08 02:08:16;;;;;;;7.18;1.23;;;17.80;93.70;;;;;;4880445;29;20049;-81
2023/10/08 02:10:47;;;;;;;5.88;1.80;;;17.80;93.70;;;;;;4880392;29;20049;-82
2023/10/08 02:13:15;;;;;;;5.40;1.27;;;17.80;93.80;;;;;;4864817;29;20144;-82
2023/10/08 02:15:54;;;;;;;8.70;1.95;;;17.80;93.80;;;;;;4895709;29;20053;-81
2023/10/08 02:18:25;;;;;;;4.63;1.40;;;17.80;93.80;;;;;;4880168;29;20053;-81
2023/10/08 02:20:52;;;;;;;8.50;1.50;;;17.70;93.80;;;;;;4864766;29;20093;-82
2023/10/08 02:23:20;;;;;;;6.47;1.35;;;17.70;93.80;;;;;;4843336;29;20097;-81
2023/10/08 02:25:47;;;;;;;4.82;1.20;;;17.70;93.90;;;;;;4879779;29;20075;-82
2023/10/08 02:28:15;;;;;;;4.43;0.77;;;17.70;93.90;;;;;;4895724;29;20049;-82
2023/10/08 02:30:43;;;;;;;4.30;1.33;;;17.70;93.90;;;;;;4879788;29;20131;-81
2023/10/08 02:33:16;;;;;;;3.88;0.98;;;17.70;93.90;;;;;;4864503;29;20053;-82
2023/10/08 02:35:45;;;;;;;2.75;0.90;;;17.70;94.00;;;;;;4858853;29;20137;-81
2023/10/08 02:38:18;;;;;;;3.10;0.93;;;17.70;94.00;;;;;;4870469;29;20048;-82
2023/10/08 02:40:47;;;;;;;;;;;17.70;94.00;;;;;;4880230;29;20136;-81
2023/10/08 02:43:16;;;;;;;4.80;1.27;;;17.60;94.00;;;;;;4879918;29;20286;-81
2023/10/08 02:45:47;;;;;;;3.53;0.77;;;17.60;94.10;;;;;;4879451;29;20120;-81
2023/10/08 02:48:15;;;;;;;4.95;0.82;;;17.60;94.10;;;;;;4879774;29;20056;-82
2023/10/08 02:50:46;;;;;;;3.83;1.00;;;17.60;94.10;;;;;;4879813;29;20063;-82
2023/10/08 02:53:23;;;;;;;4.47;1.80;;;17.60;94.10;;;;;;4879358;29;20072;-81
2023/10/08 02:55:51;;;;;;;3.08;0.88;;;17.60;94.20;;;;;;4893799;29;20052;-81
2023/10/08 02:58:20;;;;;;;7.32;1.73;;;17.60;94.50;;;;;;4879298;29;20069;-81
2023/10/08 03:00:49;;;;;;;4.38;1.17;;;17.60;94.20;;;;;;4879340;29;20496;-82
2023/10/08 03:03:18;;;;;;;4.97;1.27;;;17.60;94.20;;;;;;4879541;29;20052;-82
2023/10/08 03:05:50;;;;;;;6.25;1.30;;;17.60;94.20;;;;;;4879561;29;20044;-82
2023/10/08 03:08:24;;;;;;;6.82;1.58;;;17.60;94.20;;;;;;4879208;29;20063;-82
2023/10/08 03:10:55;;;;;;;5.28;1.70;;;17.50;94.20;;;;;;4879541;29;20053;-82
2023/10/08 03:13:24;;;;;;;;;;;17.50;94.30;;;;;;4879604;29;20045;-82
2023/10/08 03:18:36;;;;;;;7.18;2.22;;;17.40;94.30;;;;;;4865456;29;20154;-81
2023/10/08 03:21:19;;;;;;;7.90;2.63;;;17.50;94.40;;;;;;4879090;29;20069;-82
2023/10/08 03:23:51;;;;;;;6.80;2.47;;;17.50;94.30;;;;;;4878995;29;20093;-81
2023/10/08 03:29:00;;;;;;;11.93;3.03;;;17.50;94.30;;;;;;4878724;29;20049;-82
2023/10/08 03:34:18;;;;;;;10.57;3.53;;;17.50;94.30;;;;;;4865694;29;20060;-82
2023/10/08 03:36:47;;;;;;;10.40;4.50;;;17.60;94.40;;;;;;4878705;29;20053;-81
2023/10/08 03:39:18;;;;;;;13.32;4.60;;;17.50;94.40;;;;;;4878698;29;20041;-82
2023/10/08 03:41:59;;;;;;;11.70;4.45;;;17.50;94.40;;;;;;4863719;29;20099;-81
2023/10/08 03:44:29;;;;;;;11.02;3.75;;;17.50;94.40;;;;;;4863132;29;20056;-82
2023/10/08 03:46:57;;;;;;;7.63;3.60;;;17.40;94.50;;;;;;4848288;29;20575;-82
2023/10/08 03:51:52;;;;;;;8.27;2.97;;;17.40;94.50;;;;;;4862953;29;20053;-82
2023/10/08 03:54:29;;;;;;;8.23;2.40;;;17.40;94.60;;;;;;4862891;29;20053;-82
2023/10/08 03:56:57;;;;;;;6.88;2.35;;;17.40;94.60;;;;;;4893624;29;20128;-82
2023/10/08 03:59:31;;;;;;;7.30;2.60;;;17.40;94.60;;;;;;4878377;29;20456;-82
2023/10/08 04:02:10;;;;;;;9.35;2.63;;;17.40;94.70;;;;;;4878262;29;20045;-82
2023/10/08 04:04:49;;;;;;;8.10;3.15;;;17.30;94.70;;;;;;4863008;29;20097;-82
2023/10/08 04:07:24;;;;;;;9.18;2.60;;;17.30;94.70;;;;;;4878232;29;20484;-82
2023/10/08 04:10:05;;;;;;;6.85;2.10;;;17.30;94.70;;;;;;4863599;29;20109;-82
2023/10/08 04:12:34;;;;;;;9.52;2.80;;;17.30;94.70;;;;;;4849389;29;20053;-82
2023/10/08 04:15:07;;;;;;;11.85;3.08;;;17.40;94.70;;;;;;4878205;29;20415;-82
2023/10/08 04:17:44;;;;;;;8.45;3.20;;;17.40;94.70;;;;;;4878206;29;20049;-82
2023/10/08 04:20:33;;;;;;;12.02;3.58;;;17.40;94.70;;;;;;4879435;29;20060;-82
2023/10/08 04:23:03;;;;;;;7.47;3.63;;;17.40;94.70;;;;;;4862837;29;20055;-82
2023/10/08 04:25:32;;;;;;;7.88;2.40;;;17.40;94.70;;;;;;4877991;29;20460;-82
2023/10/08 04:28:00;;;;;;;8.32;3.00;;;17.40;94.90;;;;;;4877949;29;20060;-82
2023/10/08 04:30:36;;;;;;;8.55;3.00;;;17.50;94.70;;;;;;4862554;29;20514;-82
2023/10/08 04:33:14;;;;;;;7.28;2.60;;;17.40;94.60;;;;;;4878098;29;20113;-82
2023/10/08 04:35:51;;;;;;;8.43;3.10;;;17.30;94.70;;;;;;4879031;29;20551;-81
2023/10/08 04:38:22;;;;;;;8.98;2.75;;;17.20;94.70;;;;;;4877864;29;20503;-81
2023/10/08 04:40:53;;;;;;;5.97;2.10;;;17.00;94.80;;;;;;4877809;29;20590;-81
2023/10/08 04:43:25;;;;;;;7.07;2.10;;;16.80;94.80;;;;;;4877948;29;20052;-81
2023/10/08 04:45:56;;;;;;;6.60;2.03;;;16.60;94.90;;;;;;4878078;29;20053;-81
2023/10/08 04:48:31;;;;;;;4.05;1.27;;;16.50;95.00;;;;;;4877968;29;20100;-81
2023/10/08 04:50:59;;;;;;;3.72;0.95;;;16.40;95.10;;;;;;4877786;29;20492;-81
2023/10/08 04:53:37;;;;;;;2.70;1.15;;;16.30;95.10;;;;;;4877721;29;20053;-81
2023/10/08 04:56:13;;;;;;;3.15;1.08;;;16.30;95.10;;;;;;4877598;29;20052;-81
2023/10/08 04:58:41;;;;;;;5.28;1.23;;;16.30;95.00;;;;;;4877670;29;20101;-81
2023/10/08 05:01:17;;;;;;;6.43;1.25;;;16.20;95.10;;;;;;4886370;29;20119;-81
2023/10/08 05:04:06;;;;;;;3.58;1.08;;;16.20;95.10;;;;;;4865004;29;20053;-81
2023/10/08 05:19:48;;;;;;;2.15;0.70;;;16.10;95.00;;;;;;4896853;29;20460;-81
2023/10/08 05:38:23;;;;;;;2.78;0.90;;;16.00;94.80;;;;;;4880794;29;20045;-81
2023/10/08 06:13:29;;;;;;;4.18;0.63;;;15.50;94.80;;;;;;4881532;29;20052;-82
2023/10/08 06:18:18;;;;;;;5.13;1.23;;;15.40;94.80;;;;;;4880302;29;20049;-82
2023/10/08 06:20:54;;;;;;;3.85;1.15;;;15.40;94.70;;;;;;4860979;29;20052;-81
2023/10/08 06:23:25;;;;;;;2.42;0.88;;;15.30;94.80;;;;;;4874194;29;20052;-81
2023/10/08 06:25:56;;;;;;;3.25;0.70;;;15.30;94.80;;;;;;4887029;29;20105;-81
2023/10/08 06:28:27;;;;;;;1.90;0.80;;;15.30;94.80;;;;;;4891337;29;20053;-81
2023/10/08 06:30:56;;;;;;;5.07;0.80;;;15.30;94.70;;;;;;4891830;29;20036;-80
2023/10/08 06:33:30;;;;;;;3.00;0.60;;;15.30;94.70;;;;;;4889552;29;20423;-81
2023/10/08 06:36:13;;;;;;;1.98;0.47;;;15.30;94.70;;;;;;4886590;29;20500;-81
2023/10/08 06:38:42;;;;;;;3.42;0.60;;;15.30;94.60;;;;;;4865447;29;20089;-81
2023/10/08 06:44:02;;;;;;;;;;;15.30;94.50;;;;;;4881722;29;20463;-81
2023/10/08 06:46:34;;;;;;;2.83;0.40;;;15.20;94.60;;;;;;4866292;29;19946;-80
2023/10/08 06:49:11;;;;;;;2.00;0.52;;;15.20;94.60;;;;;;4865102;29;20053;-81
2023/10/08 06:51:43;;;;;;;2.08;0.60;;;15.30;94.50;;;;;;4879383;29;20065;-81
2023/10/08 06:54:13;;;;;;;1.10;0.50;;;15.20;94.40;;;;;;4879515;29;20053;-80
2023/10/08 06:56:46;;;;;;;1.83;0.63;;;15.30;94.50;;;;;;4879550;29;20053;-81
2023/10/08 06:59:17;;;;;;;1.52;0.60;;;15.30;94.40;;;;;;4879768;29;20129;-81
2023/10/08 07:01:47;;;;;;;1.90;0.70;;;15.20;94.40;;;;;;4864079;29;20132;-81
2023/10/08 07:04:18;;;;;;;2.47;0.80;;;15.20;94.40;;;;;;4849289;29;20469;-81
2023/10/08 07:06:46;;;;;;;1.17;0.52;;;15.20;94.30;;;;;;4876489;29;20113;-81
2023/10/08 07:09:29;;;;;;;1.95;0.80;;;15.30;94.30;;;;;;4879523;29;20081;-81
2023/10/08 07:11:57;;;;;;;2.28;0.80;;;15.30;94.20;;;;;;4863984;29;20076;-81
2023/10/08 07:14:28;;;;;;;2.67;0.90;;;15.30;94.20;;;;;;4879165;29;20418;-81
2023/10/08 07:17:00;;;;;;;3.38;0.95;;;15.30;94.10;;;;;;4879091;29;20041;-81
2023/10/08 07:19:37;;;;;;;2.67;1.10;;;15.30;94.10;;;;;;4863841;29;20048;-81
2023/10/08 07:22:17;;;;;;;2.78;1.00;;;15.30;94.10;;;;;;4849297;29;20045;-81
2023/10/08 07:24:50;;;;;;;2.50;0.95;;;15.40;94.00;;;;;;4863873;29;20053;-80
2023/10/08 07:27:21;;;;;;;2.70;0.95;;;15.40;94.00;;;;;;4880081;29;20400;-81
2023/10/08 07:29:49;;;;;;;2.22;0.95;;;15.50;93.90;;;;;;4878969;29;20550;-81
2023/10/08 07:32:18;;;;;;;3.08;0.85;;;15.50;93.90;;;;;;4878063;29;20049;-81
2023/10/08 07:34:46;;;;;;;2.45;1.00;;;15.60;93.90;;;;;;4863575;29;20080;-81
2023/10/08 07:37:14;;;;;;;1.98;0.98;;;15.60;93.80;;;;;;4861698;29;20056;-80
2023/10/08 07:39:46;;;;;;;2.33;0.98;;;15.60;93.80;;;;;;4848306;29;20408;-81
2023/10/08 07:42:14;;;;;;;2.90;1.10;;;15.60;93.70;;;;;;4858312;29;20503;-81
2023/10/08 07:44:41;;;;;;;2.70;1.30;;;15.60;93.70;;;;;;4894307;29;20108;-81
2023/10/08 07:47:13;;;;;;;2.35;1.02;;;15.60;93.70;;;;;;4863282;29;20511;-81
2023/10/08 07:49:44;;;;;;;2.47;1.10;;;15.60;93.70;;;;;;4859324;29;20083;-81
2023/10/08 07:52:15;;;;;;;2.45;0.98;;;15.60;93.60;;;;;;4857380;29;20122;-81
2023/10/08 07:54:43;;;;;;;2.70;1.15;;;15.60;93.70;;;;;;4877903;29;20068;-81
2023/10/08 07:57:18;;;;;;;2.85;1.27;;;15.60;93.60;;;;;;4862818;29;20400;-81
2023/10/08 07:59:46;;;;;;;3.85;1.45;;;15.60;93.60;;;;;;4878491;29;20055;-80
2023/10/08 08:02:17;;;;;;;3.25;1.48;;;15.70;93.60;;;;;;4878371;29;20053;-80
2023/10/08 08:04:52;;;;;;;3.92;1.35;;;15.70;93.50;;;;;;4878312;29;20404;-81
2023/10/08 08:07:20;;;;;;;3.88;1.60;;;15.70;93.40;;;;;;4878181;29;20109;-81
2023/10/08 08:09:58;;;;;;;4.35;2.10;;;15.70;93.40;;;;;;4878302;29;20045;-81
2023/10/08 08:12:28;;;;;;;4.25;2.17;;;15.70;93.40;;;;;;4889312;29;20566;-81
2023/10/08 08:14:55;;;;;;;4.93;2.10;;;15.60;93.50;;;;;;4878491;29;20080;-81
2023/10/08 08:17:22;;;;;;;3.63;1.88;;;15.50;93.50;;;;;;4863011;29;20045;-81
2023/10/08 08:19:51;;;;;;;4.55;2.30;;;15.60;93.50;;;;;;4859646;29;20421;-81
2023/10/08 08:22:21;;;;;;;5.28;2.88;;;15.60;93.50;;;;;;4892485;29;20048;-82
2023/10/08 08:25:04;;;;;;;4.85;2.70;;;15.60;93.50;;;;;;4878801;29;20040;-84
2023/10/08 08:27:31;;;;;;;4.13;1.92;;;15.50;93.50;;;;;;4878287;29;20419;-84
2023/10/08 08:30:10;;;;;;;4.10;2.08;;;15.50;93.60;;;;;;4877998;29;20052;-81
2023/10/08 08:32:43;;;;;;;4.07;1.80;;;15.50;93.70;;;;;;4877521;29;20041;-81
2023/10/08 08:35:11;;;;;;;3.17;1.60;;;15.50;93.70;;;;;;4878872;29;20053;-81
2023/10/08 08:37:39;;;;;;;5.13;1.70;;;15.50;93.70;;;;;;4877834;29;20041;-82
2023/10/08 08:40:21;;;;;;;4.28;2.08;;;15.60;93.70;;;;;;4870367;29;20044;-84
2023/10/08 08:42:50;;;;;;;3.33;1.50;;;15.60;93.60;;;;;;4888967;29;20033;-88
2023/10/08 08:45:22;;;;;;;4.10;1.40;;;15.70;93.60;;;;;;4882943;29;20048;-84
2023/10/08 08:47:50;;;;;;;5.43;1.88;;;15.70;93.60;;;;;;4881718;29;20049;-82
2023/10/08 08:50:19;;;;;;;4.45;1.55;;;15.70;93.60;;;;;;4881732;29;20059;-84
2023/10/08 08:52:47;;;;;;;3.25;1.60;;;15.70;93.60;;;;;;4900143;29;20060;-85
2023/10/08 08:55:16;;;;;;;2.88;1.10;;;15.80;93.60;;;;;;4885553;29;20066;-90
2023/10/08 08:57:48;;;;;;;3.55;1.20;;;15.80;93.60;;;;;;4886542;29;20045;-87
2023/10/08 09:00:17;;;;;;;3.72;1.25;;;15.80;93.60;;;;;;4885581;29;20064;-92
2023/10/08 09:02:47;;;;;;;2.13;0.80;;;15.80;93.60;;;;;;4886347;29;20059;-90
2023/10/08 09:05:34;;;;;;;2.25;0.90;;;15.90;93.50;;;;;;4886282;29;20101;-89
2023/10/08 09:08:06;;;;;;;1.70;0.60;;;16.00;93.40;;;;;;4885824;29;20049;-90
2023/10/08 09:10:50;;;;;;;2.95;0.60;;;16.10;93.30;;;;;;4884283;29;20053;-88
2023/10/08 09:14:10;;;;;;;2.58;0.60;;;16.10;93.20;;;;;;4881083;29;20048;-89
2023/10/08 09:17:37;;;;;;;;;;;;;;;;;;;;;
2023/10/08 09:20:20;;;;;;;1.98;0.45;;;16.30;92.90;;;;;;4899955;29;20049;-93
2023/10/08 09:23:14;;;;;;;3.03;0.47;;;16.40;92.90;;;;;;4899522;29;20136;-88
2023/10/08 09:30:19;;;;;;;2.47;0.52;;;16.70;92.50;;;;;;4894028;29;20447;-89
2023/10/08 09:32:51;;;;;;;2.17;0.65;;;16.80;92.30;;;;;;4885627;29;20052;-89
2023/10/08 09:35:26;;;;;;;1.85;0.40;;;16.90;92.20;;;;;;4898427;29;20055;-89
2023/10/08 09:37:57;;;;;;;1.33;0.30;;;16.90;92.10;;;;;;4899051;29;20048;-90
2023/10/08 09:40:25;;;;;;;2.35;0.50;;;16.90;92.10;;;;;;4898949;29;20051;-87
2023/10/08 09:42:55;;;;;;;0.98;0.25;;;16.80;92.00;;;;;;4883410;29;20048;-88
2023/10/08 09:45:26;;;;;;;1.45;0.35;;;16.80;92.00;;;;;;4883751;29;20056;-87
2023/10/08 09:52:15;;;;;;;2.70;0.60;;;16.90;91.90;;;;;;4833753;29;20077;-88
2023/10/08 09:55:17;;;;;;;0.80;0.30;;;16.90;91.90;;;;;;4826826;29;20058;-88
2023/10/08 09:57:46;;;;;;;1.42;0.38;;;16.90;91.70;;;;;;4818239;29;20494;-88
2023/10/08 10:00:18;;;;;;;1.35;0.40;;;16.90;91.70;;;;;;4794998;29;20046;-89
2023/10/08 10:02:50;;;;;;;3.38;0.60;;;17.00;91.60;;;;;;4809889;29;20042;-89
2023/10/08 10:05:21;;;;;;;1.10;0.40;;;17.10;91.40;;;;;;4826528;29;20145;-88
2023/10/08 10:07:48;;;;;;;2.35;0.40;;;17.10;91.40;;;;;;4824673;29;20093;-88
2023/10/08 10:10:34;;;;;;;2.38;0.30;;;17.10;91.30;;;;;;4810460;29;20058;-88
2023/10/08 10:13:04;;;;;;;2.58;0.38;;;17.20;91.20;;;;;;4835874;29;20050;-88
2023/10/08 10:15:34;;;;;;;0.57;0.20;;;17.20;91.20;;;;;;4827312;29;20086;-89
2023/10/08 10:18:16;;;;;;;0.93;0.30;;;17.30;91.10;;;;;;4824635;29;20090;-88
2023/10/08 10:20:51;;;;;;;1.95;0.50;;;17.40;91.00;;;;;;4812883;29;20066;-88
2023/10/08 10:23:50;;;;;;;1.33;0.25;;;17.50;90.90;;;;;;4812881;29;20509;-89
2023/10/08 10:26:34;;;;;;;1.00;0.30;;;17.60;90.80;;;;;;4842442;29;20050;-88
2023/10/08 10:29:11;;;;;;;1.20;0.45;;;17.60;90.70;;;;;;4859868;29;20049;-88
2023/10/08 10:31:44;;;;;;;1.67;0.30;;;17.60;90.70;;;;;;4883469;29;20129;-87
2023/10/08 10:34:16;;;;;;;0.80;0.20;;;17.70;90.60;;;;;;4883061;29;20045;-88
2023/10/08 10:36:48;;;;;;;1.55;0.28;;;17.80;90.50;;;;;;4883566;29;20055;-88
2023/10/08 10:39:31;;;;;;;2.30;0.40;;;17.90;90.40;;;;;;4883476;29;20396;-87
2023/10/08 10:42:20;;;;;;;2.78;0.45;;;17.80;90.30;;;;;;4867792;29;20059;-86
2023/10/08 10:44:53;;;;;;;1.05;0.30;;;17.90;90.30;;;;;;4900152;29;20115;-87
2023/10/08 10:49:53;;;;;;;1.50;0.30;;;18.00;90.10;;;;;;4882914;29;20055;-88
2023/10/08 10:57:44;;;;;;;0.93;0.20;;;18.10;89.90;;;;;;4882790;29;20044;-90
2023/10/08 11:03:15;;;;;;;0.57;0.20;;;18.20;89.50;;;;;;4898825;29;20040;-89
2023/10/08 11:05:51;;;;;;;0.75;0.13;;;18.30;89.30;;;;;;4872002;29;20045;-88
2023/10/08 11:08:19;;;;;;;0.25;0.15;;;18.30;89.10;;;;;;4882725;29;20059;-88
2023/10/08 11:10:51;;;;;;;0.75;0.20;;;18.30;89.10;;;;;;4882486;29;20054;-89
2023/10/08 11:13:28;;;;;;;1.40;0.30;;;18.30;88.90;;;;;;4883132;29;20518;-88
2023/10/08 11:15:58;;;;;;;1.52;0.20;;;18.20;88.70;;;;;;4882770;29;20053;-89
2023/10/08 11:18:29;;;;;;;1.17;0.32;;;18.20;88.70;;;;;;4867223;29;20431;-88
2023/10/08 11:21:17;;;;;;;0.65;0.30;;;18.20;88.50;;;;;;4882879;29;20420;-88
2023/10/08 11:23:55;;;;;;;1.48;0.38;;;18.20;88.50;;;;;;4882157;29;20072;-88
2023/10/08 11:26:31;;;;;;;1.85;0.30;;;18.20;88.60;;;;;;4882141;29;20151;-85
2023/10/08 11:29:03;;;;;;;1.88;0.22;;;18.20;88.60;;;;;;4881910;29;20959;-85
2023/10/08 11:31:34;;;;;;;0.40;0.20;;;18.20;88.50;;;;;;4882270;29;20059;-84
2023/10/08 11:34:08;;;;;;;1.30;0.50;;;18.10;88.50;;;;;;4882183;29;20111;-84
2023/10/08 11:36:48;;;;;;;1.13;0.30;;;18.20;88.50;;;;;;4898637;29;20048;-84
2023/10/08 11:39:23;;;;;;;1.67;0.50;;;18.30;88.40;;;;;;4881636;29;20055;-84
2023/10/08 11:42:22;;;;;;;1.10;0.30;;;18.30;88.00;;;;;;4882014;29;20055;-85
2023/10/08 11:44:52;;;;;;;1.60;0.20;;;18.40;87.70;;;;;;4881515;29;20049;-84
2023/10/08 11:47:24;;;;;;;1.30;0.30;;;18.40;87.70;;;;;;4883465;29;20059;-85
2023/10/08 11:50:08;;;;;;;1.27;0.50;;;18.40;87.60;;;;;;4881491;29;20519;-84
2023/10/08 11:52:44;;;;;;;2.28;0.45;;;18.40;87.60;;;;;;4865852;29;20079;-84
2023/10/08 11:55:18;;;;;;;1.30;0.30;;;18.20;87.70;;;;;;4881611;29;20590;-85
2023/10/08 11:57:50;;;;;;;1.73;0.20;;;18.10;87.90;;;;;;4881414;29;20076;-85
2023/10/08 12:00:20;;;;;;;1.27;0.20;;;18.00;88.20;;;;;;4881870;29;20044;-85
2023/10/08 12:02:54;;;;;;;0.95;0.30;;;17.90;88.40;;;;;;4881991;29;20444;-84
2023/10/08 12:05:25;;;;;;;0.43;0.20;;;17.80;88.60;;;;;;4851290;29;20055;-86
2023/10/08 12:07:58;;;;;;;1.05;0.38;;;17.80;88.70;;;;;;4881588;29;20107;-85
2023/10/08 12:10:25;;;;;;;1.73;0.35;;;17.70;88.60;;;;;;4866383;29;20095;-84
2023/10/08 12:12:54;;;;;;;2.53;0.55;;;17.70;88.60;;;;;;4881363;29;20148;-85
2023/10/08 12:15:33;;;;;;;0.95;0.20;;;17.70;88.70;;;;;;4881275;29;20055;-83
2023/10/08 12:18:15;;;;;;;1.10;0.28;;;17.70;88.70;;;;;;4865796;29;20044;-84
2023/10/08 12:20:43;;;;;;;;;;;17.70;88.80;;;;;;4881977;29;20055;-85
2023/10/08 12:23:18;;;;;;;0.93;0.40;;;17.70;88.70;;;;;;4881111;29;19927;-84
2023/10/08 12:25:51;;;;;;;1.25;0.47;;;17.80;88.50;;;;;;4881308;29;20661;-85
2023/10/08 12:28:19;;;;;;;0.93;0.43;;;17.80;88.40;;;;;;4881054;29;20100;-86
2023/10/08 12:30:49;;;;;;;1.98;0.65;;;17.80;88.50;;;;;;4880909;29;20052;-84
2023/10/08 12:33:16;;;;;;;1.38;0.65;;;17.80;88.40;;;;;;4881735;29;20100;-87
2023/10/08 12:35:53;;;;;;;2.00;0.40;;;17.80;88.40;;;;;;4881229;29;20139;-84
2023/10/08 12:38:23;;;;;;;1.52;0.50;;;17.80;88.50;;;;;;4866485;29;20131;-85
2023/10/08 12:40:59;;;;;;;1.08;0.45;;;17.80;88.60;;;;;;4865828;29;20045;-86
2023/10/08 12:43:30;;;;;;;1.48;0.68;;;17.80;88.70;;;;;;4878426;29;20079;-86
2023/10/08 12:45:58;;;;;;;1.35;0.50;;;17.70;88.80;;;;;;4881412;29;20060;-86
2023/10/08 12:48:27;;;;;;;2.05;0.50;;;17.70;88.80;;;;;;4880828;29;20052;-85
2023/10/08 12:50:58;;;;;;;1.20;0.50;;;17.70;88.80;;;;;;4881076;29;20052;-86
2023/10/08 12:53:33;;;;;;;0.98;0.30;;;17.70;88.90;;;;;;4878206;29;20061;-86
2023/10/08 12:56:05;;;;;;;2.10;0.43;;;17.60;89.00;;;;;;4878252;29;20085;-86
2023/10/08 12:58:41;;;;;;;1.48;0.50;;;17.60;89.10;;;;;;4878030;29;20105;-85
2023/10/08 13:01:09;;;;;;;1.20;0.40;;;17.60;89.20;;;;;;4878109;29;20100;-85
2023/10/08 13:03:47;;;;;;;0.85;0.25;;;17.60;89.20;;;;;;4862844;29;20041;-87
2023/10/08 13:06:28;;;;;;;1.67;0.50;;;17.70;89.30;;;;;;4878284;29;20045;-86
2023/10/08 13:08:57;;;;;;;0.73;0.40;;;17.70;89.20;;;;;;4865608;29;20057;-85
2023/10/08 13:11:29;;;;;;;1.25;0.40;;;17.70;89.20;;;;;;4877819;29;20117;-85
2023/10/08 13:13:57;;;;;;;1.70;0.38;;;17.60;89.20;;;;;;4862008;29;20062;-87
2023/10/08 13:16:30;;;;;;;1.27;0.40;;;17.60;89.40;;;;;;4877687;29;20105;-86
2023/10/08 13:18:59;;;;;;;0.93;0.30;;;17.60;89.60;;;;;;4877807;29;20045;-85
2023/10/08 13:21:28;;;;;;;0.80;0.30;;;17.60;89.60;;;;;;4877606;29;20053;-83
2023/10/08 13:23:57;;;;;;;1.90;0.40;;;17.60;89.70;;;;;;4877560;29;20045;-84
2023/10/08 13:26:25;;;;;;;0.75;0.30;;;17.60;89.60;;;;;;4877712;29;20143;-86
2023/10/08 13:28:54;;;;;;;0.52;0.20;;;17.60;89.70;;;;;;4878372;29;20160;-86
2023/10/08 13:31:21;;;;;;;0.50;0.20;;;17.60;89.90;;;;;;4881346;29;20057;-85
2023/10/08 13:33:51;;;;;;;0.82;0.30;;;17.50;90.00;;;;;;4866302;29;20080;-85
2023/10/08 13:36:19;;;;;;;1.45;0.30;;;17.50;90.00;;;;;;4865791;29;20049;-83
2023/10/08 13:38:46;;;;;;;1.20;0.20;;;17.50;90.10;;;;;;4880963;29;20056;-85
2023/10/08 13:41:16;;;;;;;1.48;0.30;;;17.60;90.10;;;;;;4880901;29;20121;-84
2023/10/08 13:43:59;;;;;;;1.58;0.40;;;17.60;90.00;;;;;;4881108;29;20068;-84
2023/10/08 13:46:26;;;;;;;2.05;0.65;;;17.60;90.00;;;;;;4880825;29;20064;-86
2023/10/08 13:48:54;;;;;;;1.55;0.30;;;17.70;90.00;;;;;;4880678;29;20057;-85
2023/10/08 13:51:25;;;;;;;0.73;0.30;;;17.70;90.00;;;;;;4865726;29;20143;-85
2023/10/08 13:54:00;;;;;;;0.50;0.20;;;17.70;90.00;;;;;;4880428;29;20057;-85
2023/10/08 13:56:30;;;;;;;1.25;0.20;;;17.80;90.00;;;;;;4880526;29;20064;-85
2023/10/08 13:59:16;;;;;;;0.50;0.20;;;17.80;90.00;;;;;;4880805;29;20068;-85
2023/10/08 14:01:51;;;;;;;0.75;0.20;;;17.80;90.00;;;;;;4880216;29;20052;-84
2023/10/08 14:04:20;;;;;;;0.75;0.30;;;17.70;90.00;;;;;;4880547;29;20057;-84
2023/10/08 14:06:51;;;;;;;2.28;0.38;;;17.70;90.10;;;;;;4880715;29;20045;-87
2023/10/08 14:09:30;;;;;;;;;;;17.60;90.30;;;;;;4880988;29;20060;-91
2023/10/08 14:12:00;;;;;;;2.20;0.40;;;17.50;90.40;;;;;;4880754;29;19931;-84
2023/10/08 14:14:29;;;;;;;0.90;0.30;;;17.50;90.40;;;;;;4881501;29;20419;-83
2023/10/08 14:17:08;;;;;;;1.08;0.35;;;17.50;90.40;;;;;;4880448;29;20057;-86
2023/10/08 14:19:51;;;;;;;1.42;0.30;;;17.50;90.40;;;;;;4880478;29;20077;-84
2023/10/08 14:22:22;;;;;;;1.10;0.30;;;17.50;90.40;;;;;;4880553;29;20046;-87
2023/10/08 14:24:58;;;;;;;0.60;0.20;;;17.50;90.40;;;;;;4880314;29;20052;-86
2023/10/08 14:27:33;;;;;;;0.70;0.30;;;17.60;90.40;;;;;;4880399;29;20056;-87
2023/10/08 14:30:06;;;;;;;0.75;0.38;;;17.60;90.50;;;;;;4881123;29;20052;-89
2023/10/08 14:32:33;;;;;;;1.20;0.40;;;17.60;90.50;;;;;;4865999;29;20053;-84
2023/10/08 14:43:22;;;;;;;2.33;0.50;;;17.50;90.70;;;;;;4879899;29;20045;-87
2023/10/08 14:45:51;;;;;;;0.80;0.52;;;17.40;90.70;;;;;;4866682;29;20049;-86
2023/10/08 14:48:27;;;;;;;1.05;0.40;;;17.40;90.80;;;;;;4865115;29;20057;-87
2023/10/08 14:50:56;;;;;;;1.65;0.50;;;17.40;90.80;;;;;;4864922;29;20393;-87
2023/10/08 14:53:28;;;;;;;1.48;0.50;;;17.40;90.80;;;;;;4865724;29;20085;-88
2023/10/08 14:55:55;;;;;;;1.00;0.40;;;17.40;90.90;;;;;;4880155;29;20053;-86
2023/10/08 14:58:22;;;;;;;1.20;0.50;;;17.40;90.90;;;;;;4879869;29;20496;-83
2023/10/08 15:00:54;;;;;;;2.15;0.73;;;17.40;90.90;;;;;;4879638;29;20068;-84
2023/10/08 15:03:21;;;;;;;1.75;0.50;;;17.40;91.20;;;;;;4864168;29;20049;-83
2023/10/08 15:05:49;;;;;;;1.27;0.60;;;17.40;91.20;;;;;;4864799;29;20414;-86
2023/10/08 15:08:18;;;;;;;1.30;0.45;;;17.40;90.90;;;;;;4879477;29;20080;-88
2023/10/08 15:10:49;;;;;;;1.58;0.50;;;17.40;90.90;;;;;;4861015;29;20061;-87
2023/10/08 15:13:16;;;;;;;1.42;0.40;;;17.40;90.90;;;;;;4863905;29;20059;-87